Latest Coastal Weather Observations for Charles Point

IDD60701

Issued at 4:21 am CST Tuesday 24 January 2017 (issued every 10 minutes, with the page automatically refreshed every 10 minutes)

About coastal observations | Map of coastal stations | Coastal observations for NT | Marine services | Other Formats
Station Details ID: 014031 Name: CHARLES POINT Lat: -12.39 Lon: 130.63 Height: 14.0 m
Data from the previous 72 hours. | See also: Recent months for locations in Northern Territory
Date/Time
CST
Temp
°C
Wind Pressure Rain since
9am
mm
Weather Cloud Vis
km
Sea
Height
m
Swell
Dir  Spd
kts
Gust
kts
hPa Trend Height
m
Period
s
Dir
24/04:00am 24.4 SW 2 7 1005.4 - 146.6 - - - - - - -
24/03:30am 23.8 S 2 3 1005.2 - 145.6 - - - - - - -
24/03:00am 23.8 ESE 3 4 1005.6 - 145.6 Rain - - - - - -
24/02:30am 23.9 SSE 4 7 1006.3 - 138.0 - - - - - - -
24/02:00am 24.3 SE 4 9 1006.1 - 122.4 - - - - - - -
24/01:30am 25.9 S 5 9 1006.5 - 114.8 - - - - - - -
24/01:00am 27.2 W 8 16 1006.7 - 114.6 - - - - - - -
24/12:30am 27.3 W 7 13 1007.1 - 114.2 - - - - - - -
24/12:00am 27.3 W 7 14 1007.5 - 113.8 Rain - - - - - -
 
Date/Time
CST
Temp
°C
Wind Pressure Rain since
9am
mm
Weather Cloud Vis
km
Sea
Height
m
Swell
Dir  Spd
kts
Gust
kts
hPa Trend Height
m
Period
s
Dir
23/11:30pm 27.4 W 8 14 1007.7 - 113.0 - - - - - - -
23/11:00pm 27.7 W 9 15 1007.8 - 112.6 - - - - - - -
23/10:30pm 27.4 W 7 11 1007.7 - 112.6 - - - - - - -
23/10:00pm 27.2 W 9 16 1007.1 - 112.6 - - - - - - -
23/09:30pm 27.6 W 11 16 1006.8 - 111.8 - - - - - - -
23/09:00pm 27.7 WNW 14 19 1006.5 - 110.4 Rain - - - - - -
23/08:30pm 27.5 NW 14 18 1006.2 - 109.8 - - - - - - -
23/08:00pm 27.0 NW 14 18 1005.9 - 109.8 - - - - - - -
23/07:30pm 26.9 NW 13 17 1005.8 - 109.6 - - - - - - -
23/07:00pm 26.2 WNW 12 18 1005.6 - 109.2 - - - - - - -
23/06:30pm 26.0 WNW 12 17 1005.4 - 108.2 - - - - - - -
23/06:00pm 24.1 W 3 7 1005.2 - 106.0 Rain - - - - - -
23/05:30pm 25.1 W 5 14 1005.1 - 102.0 - - - - - - -
23/05:00pm 24.4 WSW 6 12 1005.0 - 97.6 - - - - - - -
23/04:30pm 24.4 W 4 9 1005.0 - 88.2 - - - - - - -
23/04:00pm 23.9 SSW 6 9 1005.1 - 80.8 - - - - - - -
23/03:30pm 24.3 SSW 9 19 1005.5 - 72.6 - - - - - - -
23/03:00pm 25.7 SW 5 10 1005.7 - 68.4 Rain - - - - - -
23/02:30pm 26.3 WNW 10 14 1005.7 - 48.2 - - - - - - -
23/02:00pm 26.0 W 4 7 1006.4 - 47.8 - - - - - - -
23/01:30pm 25.4 W 5 10 1006.6 - 41.2 - - - - - - -
23/01:00pm 25.1 W 5 11 1006.8 - 34.8 - - - - - - -
23/12:30pm 25.1 WSW 4 9 1007.1 - 30.0 - - - - - - -
23/12:00pm 24.3 SW 6 11 1007.4 - 21.2 Rain - - - - - -
23/11:30am 24.7 WSW 6 11 1007.6 - 6.2 - - - - - - -
23/11:00am 28.6 WSW 6 17 1007.4 - 0.0 - - - - - - -
23/10:30am 29.1 SW 3 9 1007.8 - 0.0 - - - - - - -
23/10:00am 28.4 W 3 7 1008.1 - 0.0 - - - - - - -
23/09:30am 28.7 SW 4 7 1007.9 - 0.0 - - - - - - -
23/09:00am 28.3 SW 5 9 1007.6 - 6.6 - - - - - - -
23/08:30am 27.9 SSW 5 10 1007.1 - 6.6 - - - - - - -
23/08:00am 27.6 WSW 7 13 1007.1 - 6.6 - - - - - - -
23/07:30am 27.1 W 4 9 1007.0 - 6.6 - - - - - - -
23/07:00am 27.0 WSW 4 10 1006.7 - 6.6 - - - - - - -
23/06:30am 26.5 WSW 2 5 1005.8 - 6.6 - - - - - - -
23/06:00am 26.3 WSW 2 4 1005.6 - 6.6 - - - - - - -
23/05:30am 25.7 SSW 1 3 1005.5 - 6.6 - - - - - - -
23/05:00am 25.4 SSW 4 7 1005.6 - 6.6 - - - - - - -
23/04:30am 25.0 SSW 5 9 1005.6 - 6.6 - - - - - - -
23/04:00am 25.8 SW 5 10 1005.4 - 6.4 - - - - - - -
23/03:30am 27.9 SW 7 13 1005.2 - 4.4 - - - - - - -
23/03:00am 28.7 W 6 11 1005.4 - 4.4 - - - - - - -
23/02:30am 28.8 W 7 13 1005.8 - 4.4 - - - - - - -
23/02:00am 28.8 W 8 13 1006.3 - 4.4 - - - - - - -
23/01:30am 28.7 W 6 12 1007.0 - 4.4 - - - - - - -
23/01:00am 28.9 W 7 15 1007.2 - 4.4 - - - - - - -
23/12:30am 28.8 W 7 13 1007.3 - 4.4 - - - - - - -
23/12:00am 28.6 W 6 11 1007.6 - 4.4 - - - - - - -
 
Date/Time
CST
Temp
°C
Wind Pressure Rain since
9am
mm
Weather Cloud Vis
km
Sea
Height
m
Swell
Dir  Spd
kts
Gust
kts
hPa Trend Height
m
Period
s
Dir
22/11:30pm 28.7 W 6 11 1008.1 - 4.4 - - - - - - -
22/11:00pm 28.9 W 6 11 1008.6 - 4.4 - - - - - - -
22/10:30pm 28.9 W 8 13 1008.5 - 4.4 - - - - - - -
22/10:00pm 28.6 W 7 12 1008.0 - 4.4 - - - - - - -
22/09:30pm 28.3 W 8 14 1008.3 - 4.4 - - - - - - -
22/09:00pm 27.4 W 4 10 1008.2 - 4.4 Rain - - - - - -
22/08:30pm 26.1 WSW 4 8 1007.9 - 3.8 - - - - - - -
22/08:00pm 26.8 SSW 3 6 1007.7 - 3.0 - - - - - - -
22/07:30pm 26.5 SW 5 8 1007.4 - 2.6 - - - - - - -
22/07:00pm 26.8 SW 2 4 1007.0 - 0.2 - - - - - - -
22/06:30pm 26.3 WSW 5 13 1006.7 - 0.2 - - - - - - -
22/06:00pm 29.4 W 5 8 1006.4 - 0.0 - - - - - - -
22/05:30pm 29.2 W 7 12 1006.0 - 0.0 - - - - - - -
22/05:00pm 29.3 W 8 13 1005.8 - 0.0 - - - - - - -
22/04:30pm 29.0 W 10 18 1005.4 - 0.0 - - - - - - -
22/04:00pm 30.4 W 8 13 1005.6 - 0.0 - - - - - - -
22/03:30pm 31.2 W 11 19 1005.6 - 0.0 - - - - - - -
22/03:00pm 30.6 W 8 15 1005.6 - 0.0 - - - - - - -
22/02:30pm 31.2 W 10 16 1006.1 - 0.0 - - - - - - -
22/02:00pm 31.3 W 8 14 1006.5 - 0.0 - - - - - - -
22/01:30pm 31.5 W 7 13 1007.0 - 0.0 - - - - - - -
22/01:00pm 30.9 W 8 15 1007.7 - 0.0 - - - - - - -
22/12:30pm 31.4 W 7 14 1008.1 - 0.0 - - - - - - -
22/12:00pm 30.7 W 7 13 1008.3 - 0.0 - - - - - - -
22/11:30am 31.0 WSW 7 15 1008.5 - 0.0 - - - - - - -
22/11:00am 31.3 W 7 13 1008.7 - 0.0 - - - - - - -
22/10:30am 30.4 W 6 12 1009.1 - 0.0 - - - - - - -
22/10:00am 30.2 WSW 6 12 1009.2 - 0.0 - - - - - - -
22/09:30am 30.3 W 7 11 1009.4 - 0.0 - - - - - - -
22/09:00am 30.2 W 4 7 1009.6 - 1.2 Rain - - - - - -
22/08:30am 29.5 W 5 9 1009.5 - 1.0 - - - - - - -
22/08:00am 29.0 W 4 7 1009.4 - 1.0 - - - - - - -
22/07:30am 28.7 W 5 10 1009.1 - 1.0 - - - - - - -
22/07:00am 28.6 W 5 10 1009.0 - 1.0 - - - - - - -
22/06:30am 28.4 W 6 10 1008.6 - 1.0 - - - - - - -
22/06:00am 28.3 W 5 8 1008.3 - 1.0 - - - - - - -
22/05:30am 28.4 W 5 10 1008.2 - 1.0 - - - - - - -
22/05:00am 28.3 W 5 11 1008.1 - 1.0 - - - - - - -
22/04:30am 28.2 W 5 10 1008.0 - 1.0 - - - - - - -
22/04:00am 28.4 W 6 12 1008.2 - 1.0 - - - - - - -
22/03:30am 28.3 W 6 12 1008.3 - 1.0 - - - - - - -
22/03:00am 28.3 W 7 13 1008.5 - 1.0 - - - - - - -
22/02:30am 27.8 W 5 11 1008.6 - 1.0 - - - - - - -
22/02:00am 27.3 W 3 5 1008.7 - 1.0 - - - - - - -
22/01:30am 26.6 WSW 2 3 1009.0 - 1.0 - - - - - - -
22/01:00am 26.5 SW 2 4 1009.3 - 1.0 - - - - - - -
22/12:30am 26.3 SSW 2 3 1009.6 - 1.0 - - - - - - -
22/12:00am 26.3 S 2 4 1010.0 - 1.0 - - - - - - -
 
Date/Time
CST
Temp
°C
Wind Pressure Rain since
9am
mm
Weather Cloud Vis
km
Sea
Height
m
Swell
Dir  Spd
kts
Gust
kts
hPa Trend Height
m
Period
s
Dir
21/11:30pm 26.2 S 3 4 1010.2 - 1.0 - - - - - - -
21/11:00pm 26.5 S 3 5 1010.3 - 1.0 - - - - - - -
21/10:30pm 27.4 SSW 4 6 1010.4 - 1.0 - - - - - - -
21/10:00pm 28.4 W 5 8 1010.1 - 1.0 - - - - - - -
21/09:30pm 28.1 W 4 9 1010.1 - 1.0 - - - - - - -
21/09:00pm 28.1 W 6 10 1009.7 - 1.0 - - - - - - -
21/08:30pm 26.9 WNW 4 9 1009.4 - 1.0 - - - - - - -
21/08:00pm 26.7 CALM 0 0 1009.2 - 1.0 - - - - - - -
21/07:30pm 26.8 WSW 1 2 1008.9 - 1.0 - - - - - - -
21/07:00pm 27.2 WSW 2 3 1008.3 - 1.0 - - - - - - -
21/06:30pm 27.6 WSW 3 6 1008.1 - 1.0 - - - - - - -
21/06:00pm 28.6 WNW 6 9 1007.7 - 1.0 - - - - - - -
21/05:30pm 29.1 WNW 5 9 1007.2 - 1.0 - - - - - - -
21/05:00pm 29.9 WNW 6 9 1007.1 - 1.0 - - - - - - -
21/04:30pm 30.1 WNW 6 8 1007.1 - 1.0 - - - - - - -
21/04:00pm 30.1 WNW 7 10 1007.4 - 1.0 - - - - - - -
21/03:30pm 29.9 W 5 7 1007.6 - 1.0 - - - - - - -
21/03:00pm 29.5 WNW 6 10 1007.8 - 1.0 - - - - - - -
21/02:30pm 30.3 WNW 7 10 1007.9 - 1.0 - - - - - - -
21/02:00pm 29.6 WNW 6 9 1008.2 - 1.0 - - - - - - -
21/01:30pm 29.6 W 5 7 1008.5 - 1.0 - - - - - - -
21/01:00pm 28.6 SW 3 6 1008.9 - 1.0 - - - - - - -
21/12:30pm 27.0 SSW 2 3 1009.3 - 0.8 - - - - - - -
21/12:00pm 26.0 SSW 2 5 1009.8 - 0.8 - - - - - - -
21/11:30am 25.6 S 3 6 1010.2 - 0.8 - - - - - - -
21/11:00am 25.2 S 3 5 1010.7 - 0.8 - - - - - - -
21/10:30am 24.7 S 4 6 1010.9 - 0.8 - - - - - - -
21/10:00am 24.5 S 4 7 1011.1 - 0.8 - - - - - - -
21/09:30am 24.3 SSE 3 4 1011.3 - 0.6 - - - - - - -
21/09:00am 24.1 SE 3 5 1011.2 - 11.8 Recent precip. - - - - - -
21/08:30am 24.2 SSE 4 6 1011.2 - 7.8 - - - - - - -
21/08:00am 24.4 SSE 5 7 1010.8 - 6.8 - - - - - - -
21/07:30am 24.7 SSE 4 5 1010.4 - 6.6 - - - - - - -
21/07:00am 25.3 SW 2 4 1009.9 - 6.4 - - - - - - -
21/06:30am 25.4 SW 6 11 1009.7 - 6.2 - - - - - - -
21/06:00am 25.9 SSW 3 5 1008.9 - 5.2 - - - - - - -
21/05:30am 26.1 WSW 3 6 1008.3 - 5.2 - - - - - - -
21/05:00am 27.2 WNW 4 7 1008.1 - 5.2 - - - - - - -
21/04:30am 27.9 NW 7 9 1007.7 - 4.8 - - - - - - -

Other Formats:

Comma delimited format used in spreadsheet applications
http://www.bom.gov.au/fwo/IDD60701/IDD60701.99510.axf

JavaScript Object Notation format (JSON) in row-major order
http://www.bom.gov.au/fwo/IDD60701/IDD60701.99510.json